createdAt,value
2023-01-11T00:01:09.260Z,36.93
2023-01-11T00:03:37.172Z,38.07
2023-01-11T00:06:07.329Z,35.83
2023-01-11T00:08:35.058Z,37.07
2023-01-11T00:11:03.254Z,35.23
2023-01-11T00:13:33.112Z,38.77
2023-01-11T00:16:06.384Z,36.33
2023-01-11T00:18:34.152Z,37.67
2023-01-11T00:21:06.468Z,36.93
2023-01-11T00:23:35.606Z,35.50
2023-01-11T00:26:04.863Z,36.63
2023-01-11T00:28:32.493Z,35.77
2023-01-11T00:31:00.916Z,34.73
2023-01-11T00:33:28.778Z,34.83
2023-01-11T00:35:57.219Z,33.13
2023-01-11T00:38:43.472Z,35.27
2023-01-11T00:41:31.357Z,35.90
2023-01-11T00:44:17.618Z,32.57
2023-01-11T00:47:04.444Z,33.93
2023-01-11T00:49:32.441Z,32.13
2023-01-11T00:52:00.794Z,32.27
2023-01-11T00:54:28.567Z,34.80
2023-01-11T00:56:56.608Z,32.87
2023-01-11T00:59:24.366Z,31.70
2023-01-11T01:01:52.586Z,32.47
2023-01-11T01:04:20.320Z,33.03
2023-01-11T01:06:48.558Z,32.60
2023-01-11T01:09:16.276Z,33.73
2023-01-11T01:11:44.309Z,32.13
2023-01-11T01:14:29.956Z,32.63
2023-01-11T01:16:59.410Z,33.13
2023-01-11T01:19:30.310Z,30.83
2023-01-11T01:21:59.833Z,32.67
2023-01-11T01:24:32.332Z,32.50
2023-01-11T01:27:00.515Z,34.37
2023-01-11T01:29:28.504Z,34.40
2023-01-11T01:31:57.091Z,31.93
2023-01-11T01:34:24.906Z,35.00
2023-01-11T01:36:53.271Z,32.70
2023-01-11T01:39:21.477Z,31.17
2023-01-11T01:41:49.996Z,30.47
2023-01-11T01:44:54.495Z,32.03
2023-01-11T01:47:25.299Z,29.87
2023-01-11T01:49:53.426Z,31.33
2023-01-11T01:52:21.951Z,31.87
2023-01-11T01:54:50.272Z,31.53
2023-01-11T01:57:22.186Z,33.60
2023-01-11T01:59:52.115Z,32.57
2023-01-11T02:02:22.250Z,33.10
2023-01-11T02:04:50.274Z,31.33
2023-01-11T02:07:23.305Z,32.27
2023-01-11T02:09:55.563Z,31.50
2023-01-11T02:12:25.708Z,35.20
2023-01-11T02:14:54.719Z,34.37
2023-01-11T02:17:22.773Z,36.57
2023-01-11T02:19:57.122Z,34.20
2023-01-11T02:22:58.700Z,33.93
2023-01-11T02:25:38.961Z,33.13
2023-01-11T02:28:17.723Z,31.60
2023-01-11T02:31:06.899Z,36.17
2023-01-11T02:33:35.168Z,36.50
2023-01-11T02:36:03.226Z,36.43
2023-01-11T02:38:34.714Z,34.60
2023-01-11T02:41:14.292Z,34.93
2023-01-11T02:44:01.020Z,37.33
2023-01-11T02:46:48.098Z,36.80
2023-01-11T02:49:25.359Z,35.23
2023-01-11T02:51:56.811Z,34.03
2023-01-11T02:54:26.531Z,36.43
2023-01-11T02:56:57.655Z,35.77
2023-01-11T02:59:30.207Z,34.00
2023-01-11T03:01:58.384Z,34.13
2023-01-11T03:04:37.751Z,31.80
2023-01-11T03:07:09.355Z,35.27
2023-01-11T03:09:43.580Z,35.17
2023-01-11T03:12:55.320Z,37.23
2023-01-11T03:15:23.901Z,34.67
2023-01-11T03:17:51.545Z,35.97
2023-01-11T03:20:27.514Z,37.63
2023-01-11T03:22:55.263Z,36.93
2023-01-11T03:25:35.989Z,36.20
2023-01-11T03:28:10.973Z,33.53
2023-01-11T03:30:39.280Z,38.83
2023-01-11T03:33:24.230Z,35.87
2023-01-11T03:35:56.693Z,36.73
2023-01-11T03:38:28.764Z,36.47
2023-01-11T03:40:58.845Z,35.80
2023-01-11T03:43:28.117Z,36.40
2023-01-11T03:46:01.923Z,36.07
2023-01-11T03:48:35.902Z,38.70
2023-01-11T03:51:05.589Z,35.50
2023-01-11T03:53:35.677Z,36.73
2023-01-11T03:56:05.774Z,34.50
2023-01-11T03:58:34.323Z,35.23
2023-01-11T04:01:03.413Z,34.40
2023-01-11T04:03:31.375Z,37.10
2023-01-11T04:06:01.626Z,34.93
2023-01-11T04:08:31.171Z,37.60
2023-01-11T04:10:59.346Z,37.27
2023-01-11T04:13:27.431Z,37.67
2023-01-11T04:15:55.453Z,35.73
2023-01-11T04:18:23.297Z,36.40
2023-01-11T04:20:51.391Z,38.43
2023-01-11T04:23:19.126Z,37.40
2023-01-11T04:25:48.045Z,36.23
2023-01-11T04:28:16.212Z,36.67
2023-01-11T04:30:44.229Z,39.57
2023-01-11T04:33:13.401Z,38.17
2023-01-11T04:35:42.560Z,35.03
2023-01-11T04:38:10.836Z,37.90
2023-01-11T04:40:39.294Z,37.63
2023-01-11T04:43:06.957Z,37.93
2023-01-11T04:45:34.970Z,37.03
2023-01-11T04:48:02.825Z,38.23
2023-01-11T04:50:32.485Z,39.10
2023-01-11T04:53:00.237Z,36.47
2023-01-11T04:55:28.184Z,36.87
2023-01-11T04:57:55.930Z,37.90
2023-01-11T05:00:23.973Z,35.87
2023-01-11T05:02:52.026Z,35.87
2023-01-11T05:05:20.678Z,37.30
2023-01-11T05:07:48.825Z,37.27
2023-01-11T05:10:17.085Z,38.60
2023-01-11T05:12:44.729Z,35.20
2023-01-11T05:15:13.454Z,37.90
2023-01-11T05:17:41.181Z,37.03
2023-01-11T05:20:09.425Z,38.03
2023-01-11T05:22:37.259Z,37.43
2023-01-11T05:25:05.228Z,38.20
2023-01-11T05:27:33.401Z,37.40
2023-01-11T05:30:02.120Z,39.47
2023-01-11T05:32:30.573Z,41.40
2023-01-11T05:34:58.384Z,44.53
2023-01-11T05:37:25.791Z,44.33
2023-01-11T05:39:53.367Z,46.20
2023-01-11T05:42:22.222Z,45.83
2023-01-11T05:45:08.888Z,46.50
2023-01-11T05:47:36.680Z,44.93
2023-01-11T05:50:04.471Z,46.43
2023-01-11T05:52:31.706Z,46.70
2023-01-11T05:54:59.845Z,43.13
2023-01-11T05:57:27.178Z,44.57
2023-01-11T05:59:54.716Z,49.37
2023-01-11T06:02:22.602Z,44.97
2023-01-11T06:04:50.412Z,44.13
2023-01-11T06:07:17.715Z,45.37
2023-01-11T06:09:45.444Z,47.07
2023-01-11T06:12:12.812Z,42.97
2023-01-11T06:14:40.465Z,47.00
2023-01-11T06:17:07.770Z,47.57
2023-01-11T06:19:35.512Z,43.20
2023-01-11T06:22:03.145Z,46.63
2023-01-11T06:24:30.828Z,42.83
2023-01-11T06:26:58.231Z,42.17
2023-01-11T06:29:26.001Z,44.13
2023-01-11T06:31:53.440Z,45.57
2023-01-11T06:34:21.275Z,46.00
2023-01-11T06:36:49.153Z,46.23
2023-01-11T06:39:16.806Z,48.70
2023-01-11T06:41:44.050Z,49.63
2023-01-11T06:44:11.702Z,48.33
2023-01-11T06:46:39.019Z,49.57
2023-01-11T06:49:06.645Z,52.17
2023-01-11T06:51:34.027Z,51.17
2023-01-11T06:54:01.783Z,53.73
2023-01-11T06:56:29.045Z,49.80
2023-01-11T06:58:56.754Z,49.90
2023-01-11T07:01:25.228Z,49.73
2023-01-11T07:03:53.458Z,49.07
2023-01-11T07:06:20.908Z,47.90
2023-01-11T07:08:48.716Z,48.07
2023-01-11T07:11:16.330Z,44.73
2023-01-11T07:13:44.184Z,44.77
2023-01-11T07:16:11.761Z,46.33
2023-01-11T07:18:39.494Z,49.80
2023-01-11T07:21:07.013Z,47.37
2023-01-11T07:23:35.006Z,48.33
2023-01-11T07:26:02.551Z,53.23
2023-01-11T07:28:30.932Z,50.53
2023-01-11T07:30:59.936Z,46.80
2023-01-11T07:33:28.639Z,43.90
2023-01-11T07:35:56.670Z,45.80
2023-01-11T07:38:24.768Z,46.90
2023-01-11T07:40:52.307Z,45.53
2023-01-11T07:43:24.101Z,44.30
2023-01-11T07:45:53.585Z,43.57
2023-01-11T07:48:27.431Z,42.03
2023-01-11T07:50:55.389Z,42.33
2023-01-11T07:53:26.137Z,43.60
2023-01-11T07:55:55.895Z,40.57
2023-01-11T07:58:25.098Z,40.87
2023-01-11T08:00:52.850Z,39.37
2023-01-11T08:03:21.047Z,34.90
2023-01-11T08:05:53.358Z,37.20
2023-01-11T08:08:21.881Z,36.80
2023-01-11T08:11:12.816Z,33.37
2023-01-11T08:13:58.897Z,31.87
2023-01-11T08:16:27.546Z,33.30
2023-01-11T08:18:55.728Z,27.53
2023-01-11T08:21:23.367Z,31.87
2023-01-11T08:23:54.621Z,28.47
2023-01-11T08:26:28.006Z,25.53
2023-01-11T08:28:56.643Z,25.63
2023-01-11T08:31:24.761Z,27.47
2023-01-11T08:33:52.454Z,22.93
2023-01-11T08:36:20.198Z,24.23
2023-01-11T08:38:47.963Z,25.47
2023-01-11T08:41:15.523Z,22.13
2023-01-11T08:43:43.900Z,23.90
2023-01-11T08:46:11.402Z,24.27
2023-01-11T08:48:38.939Z,24.27
2023-01-11T08:51:06.312Z,22.70
2023-01-11T08:53:33.971Z,22.07
2023-01-11T08:56:01.501Z,20.80
2023-01-11T08:58:29.850Z,18.97
2023-01-11T09:01:00.311Z,19.20
2023-01-11T09:03:28.935Z,17.33
2023-01-11T09:06:00.209Z,19.07
2023-01-11T09:08:29.422Z,17.73
2023-01-11T09:10:59.921Z,17.83
2023-01-11T09:13:28.904Z,16.77
2023-01-11T09:16:00.008Z,16.57
2023-01-11T09:18:27.699Z,16.00
2023-01-11T09:20:55.285Z,16.33
2023-01-11T09:23:23.476Z,14.10
2023-01-11T09:25:51.752Z,15.60
2023-01-11T09:28:20.121Z,15.57
2023-01-11T09:30:47.923Z,14.60
2023-01-11T09:33:15.682Z,14.40
2023-01-11T09:35:46.592Z,13.87
2023-01-11T09:38:15.020Z,12.30
2023-01-11T09:41:08.997Z,14.23
2023-01-11T09:43:51.249Z,14.30
2023-01-11T09:46:19.872Z,13.80
2023-01-11T09:49:00.535Z,14.83
2023-01-11T09:51:35.478Z,13.20
2023-01-11T09:54:08.682Z,12.27
2023-01-11T09:56:48.731Z,14.30
2023-01-11T09:59:35.169Z,11.97
2023-01-11T10:02:20.212Z,12.43
2023-01-11T10:05:31.184Z,12.27
2023-01-11T10:18:31.018Z,12.73
2023-01-11T10:18:39.150Z,13.47
2023-01-11T10:20:28.068Z,13.50
2023-01-11T10:23:06.622Z,13.03
2023-01-11T10:25:43.333Z,13.83
2023-01-11T10:28:27.777Z,13.70
2023-01-11T10:30:59.650Z,13.47
2023-01-11T10:33:51.298Z,14.33
2023-01-11T10:37:01.636Z,13.07
2023-01-11T10:39:55.577Z,13.33
2023-01-11T10:42:29.614Z,12.53
2023-01-11T10:45:18.922Z,11.13
2023-01-11T10:48:04.444Z,12.20
2023-01-11T10:51:10.718Z,12.30
2023-01-11T10:54:01.311Z,11.80
2023-01-11T10:57:13.650Z,12.67
2023-01-11T11:00:23.870Z,13.67
2023-01-11T11:03:00.585Z,11.30
2023-01-11T11:05:34.496Z,12.30
2023-01-11T11:08:17.865Z,12.07
2023-01-11T11:10:57.301Z,11.80
2023-01-11T11:13:40.865Z,11.80
2023-01-11T11:16:23.374Z,11.73
2023-01-11T11:18:54.713Z,11.53
2023-01-11T11:21:53.081Z,11.73
2023-01-11T11:24:28.061Z,11.77
2023-01-11T11:27:09.313Z,10.27
2023-01-11T11:29:50.219Z,9.50
2023-01-11T11:32:27.997Z,9.67
2023-01-11T11:34:55.765Z,8.43
2023-01-11T11:37:35.609Z,8.83
2023-01-11T11:40:06.328Z,8.97
2023-01-11T11:42:33.791Z,8.10
2023-01-11T11:45:10.577Z,7.90
2023-01-11T11:47:38.980Z,8.10
2023-01-11T11:50:43.596Z,8.03
2023-01-11T11:53:23.827Z,8.90
2023-01-11T11:55:53.081Z,9.20
2023-01-11T11:58:25.253Z,9.20
2023-01-11T12:00:53.561Z,7.83
2023-01-11T12:03:34.577Z,8.53
2023-01-11T12:06:05.419Z,9.27
2023-01-11T12:08:35.604Z,8.73
2023-01-11T12:11:15.498Z,8.10
2023-01-11T12:13:44.866Z,11.57
2023-01-11T12:16:22.806Z,9.20
2023-01-11T12:18:50.499Z,9.50
2023-01-11T12:21:19.890Z,10.77
2023-01-11T12:23:48.207Z,9.20
2023-01-11T12:26:31.568Z,8.17
2023-01-11T12:29:17.400Z,7.63
2023-01-11T12:32:02.643Z,8.93
2023-01-11T12:34:38.964Z,8.10
2023-01-11T12:37:15.555Z,8.97
2023-01-11T12:40:01.583Z,8.23
2023-01-11T12:42:54.140Z,8.20
2023-01-11T12:45:28.307Z,7.63
2023-01-11T12:48:31.659Z,9.10
2023-01-11T12:51:29.390Z,8.73
2023-01-11T12:54:00.192Z,8.60
2023-01-11T12:56:39.789Z,7.80
2023-01-11T12:59:16.056Z,8.20
2023-01-11T13:01:57.676Z,8.67
2023-01-11T13:04:58.677Z,8.87
2023-01-11T13:08:07.545Z,10.97
2023-01-11T13:10:49.991Z,9.90
2023-01-11T13:13:35.574Z,9.20
2023-01-11T13:16:22.279Z,8.67
2023-01-11T13:19:23.150Z,8.83
2023-01-11T13:21:55.875Z,8.83
2023-01-11T13:24:30.867Z,9.33
2023-01-11T13:27:12.360Z,8.73
2023-01-11T13:29:44.133Z,9.23
2023-01-11T13:32:23.533Z,9.87
2023-01-11T13:35:00.283Z,9.87
2023-01-11T13:37:28.365Z,10.00
2023-01-11T13:39:59.712Z,12.33
2023-01-11T13:42:37.160Z,11.20
2023-01-11T13:45:18.150Z,12.17
2023-01-11T13:47:54.344Z,11.57
2023-01-11T13:50:37.563Z,10.10
2023-01-11T13:53:15.728Z,13.97
2023-01-11T13:55:57.773Z,14.13
2023-01-11T13:58:49.453Z,12.57
2023-01-11T14:01:48.042Z,11.27
2023-01-11T14:04:25.854Z,10.13
2023-01-11T14:07:12.200Z,9.93
2023-01-11T14:09:50.159Z,10.13
2023-01-11T14:12:23.727Z,10.30
2023-01-11T14:15:06.198Z,8.60
2023-01-11T14:17:38.471Z,9.77
2023-01-11T14:20:18.517Z,9.90
2023-01-11T14:23:05.113Z,10.03
2023-01-11T14:26:06.704Z,10.47
2023-01-11T14:28:52.132Z,10.40
2023-01-11T14:31:29.307Z,10.73
2023-01-11T14:34:05.742Z,10.87
2023-01-11T14:37:00.841Z,9.93
2023-01-11T14:39:51.504Z,10.73
2023-01-11T14:42:43.754Z,10.67
2023-01-11T14:45:20.465Z,10.07
2023-01-11T14:47:59.675Z,10.60
2023-01-11T14:51:07.052Z,10.83
2023-01-11T14:53:46.688Z,10.13
2023-01-11T14:56:56.625Z,10.67
2023-01-11T14:59:31.109Z,10.30
2023-01-11T15:02:05.550Z,10.27
2023-01-11T15:04:36.463Z,9.83
2023-01-11T15:07:25.872Z,9.67
2023-01-11T15:09:54.377Z,11.13
2023-01-11T15:12:25.729Z,14.33
2023-01-11T15:15:08.775Z,12.50
2023-01-11T15:17:55.185Z,11.50
2023-01-11T15:20:24.404Z,11.10
2023-01-11T15:23:07.467Z,12.03
2023-01-11T15:25:35.931Z,10.67
2023-01-11T15:28:25.803Z,12.20
2023-01-11T15:30:53.902Z,11.73
2023-01-11T15:33:25.399Z,9.77
2023-01-11T15:35:56.857Z,12.00
2023-01-11T15:38:37.708Z,10.43
2023-01-11T15:41:33.617Z,11.67
2023-01-11T15:44:23.294Z,11.43
2023-01-11T15:47:26.490Z,11.77
2023-01-11T15:50:18.575Z,11.53
2023-01-11T15:53:21.087Z,12.10
2023-01-11T15:56:03.779Z,11.63
2023-01-11T15:58:37.821Z,13.40
2023-01-11T16:01:30.521Z,11.93
2023-01-11T16:04:22.139Z,11.93
2023-01-11T16:06:58.990Z,12.40
2023-01-11T16:09:48.638Z,11.40
2023-01-11T16:12:48.135Z,12.63
2023-01-11T16:15:40.508Z,12.13
2023-01-11T16:18:20.261Z,12.50
2023-01-11T16:21:03.127Z,12.43
2023-01-11T16:23:34.896Z,12.33
2023-01-11T16:26:05.276Z,13.60
2023-01-11T16:28:35.910Z,13.10
2023-01-11T16:31:06.140Z,13.03
2023-01-11T16:33:36.245Z,13.87
2023-01-11T16:36:24.777Z,15.17
2023-01-11T16:38:59.896Z,15.30
2023-01-11T16:41:38.421Z,15.77
2023-01-11T16:44:09.926Z,15.93
2023-01-11T16:46:47.117Z,16.33
2023-01-11T16:49:18.807Z,17.00
2023-01-11T16:51:49.186Z,16.73
2023-01-11T16:54:24.048Z,17.60
2023-01-11T16:56:52.657Z,18.33
2023-01-11T16:59:31.965Z,17.70
2023-01-11T17:02:11.342Z,18.50
2023-01-11T17:04:50.635Z,18.27
2023-01-11T17:07:23.187Z,18.27
2023-01-11T17:09:51.484Z,18.83
2023-01-11T17:12:25.570Z,19.17
2023-01-11T17:15:09.321Z,20.73
2023-01-11T17:17:38.165Z,20.80
2023-01-11T17:20:22.853Z,18.93
2023-01-11T17:22:54.036Z,20.77
2023-01-11T17:25:29.535Z,19.23
2023-01-11T17:28:05.990Z,19.30
2023-01-11T17:30:34.709Z,19.07
2023-01-11T17:33:03.021Z,19.23
2023-01-11T17:35:35.026Z,20.13
2023-01-11T17:38:06.672Z,19.33
2023-01-11T17:40:38.765Z,19.73
2023-01-11T17:44:07.543Z,19.00
2023-01-11T17:46:36.133Z,20.53
2023-01-11T17:49:04.077Z,21.47
2023-01-11T17:51:36.014Z,20.13
2023-01-11T17:54:04.370Z,19.27
2023-01-11T17:56:38.257Z,17.70
2023-01-11T17:59:21.764Z,17.83
2023-01-11T18:01:52.773Z,18.87
2023-01-11T18:04:22.569Z,20.03
2023-01-11T18:06:57.506Z,20.50
2023-01-11T18:09:29.417Z,20.57
2023-01-11T18:12:23.715Z,22.77
2023-01-11T18:15:01.995Z,21.97
2023-01-11T18:17:38.039Z,24.00
2023-01-11T18:20:15.219Z,26.50
2023-01-11T18:22:59.364Z,23.40
2023-01-11T18:25:29.740Z,23.40
2023-01-11T18:28:20.412Z,25.60
2023-01-11T18:30:59.443Z,24.87
2023-01-11T18:33:30.844Z,22.17
2023-01-11T18:36:04.095Z,23.23
2023-01-11T18:38:35.721Z,23.40
2023-01-11T18:41:26.726Z,21.67
2023-01-11T18:43:55.403Z,22.67
2023-01-11T18:46:25.070Z,21.77
2023-01-11T18:48:54.902Z,21.77
2023-01-11T18:51:32.531Z,18.43
2023-01-11T18:54:00.626Z,22.50
2023-01-11T18:56:31.475Z,20.00
2023-01-11T18:59:00.026Z,21.13
2023-01-11T19:01:33.383Z,20.70
2023-01-11T19:04:11.095Z,19.97
2023-01-11T19:06:39.581Z,20.17
2023-01-11T19:09:07.791Z,18.87
2023-01-11T19:11:35.983Z,19.07
2023-01-11T19:14:03.616Z,19.53
2023-01-11T19:16:31.814Z,19.77
2023-01-11T19:18:59.581Z,19.67
2023-01-11T19:21:27.703Z,20.07
2023-01-11T19:23:55.111Z,19.00
2023-01-11T19:26:23.109Z,22.43
2023-01-11T19:28:50.664Z,23.23
2023-01-11T19:31:18.490Z,20.97
2023-01-11T19:33:46.207Z,21.53
2023-01-11T19:36:14.117Z,20.27
2023-01-11T19:38:41.786Z,23.37
2023-01-11T19:41:10.696Z,22.27
2023-01-11T19:43:45.269Z,24.30
2023-01-11T19:46:22.456Z,23.73
2023-01-11T19:48:58.208Z,24.50
2023-01-11T19:51:26.643Z,23.50
2023-01-11T19:53:54.515Z,23.30
2023-01-11T19:56:23.111Z,24.87
2023-01-11T19:58:51.578Z,23.87
2023-01-11T20:01:19.633Z,25.00
2023-01-11T20:03:48.563Z,28.93
2023-01-11T20:06:17.258Z,27.03
2023-01-11T20:08:45.730Z,28.27
2023-01-11T20:11:15.590Z,28.37
2023-01-11T20:13:45.874Z,28.50
2023-01-11T20:16:14.787Z,29.87
2023-01-11T20:18:53.039Z,30.30
2023-01-11T20:21:24.425Z,29.77
2023-01-11T20:23:53.228Z,31.37
2023-01-11T20:26:22.611Z,31.87
2023-01-11T20:28:55.445Z,30.67
2023-01-11T20:31:28.500Z,31.20
2023-01-11T20:33:56.996Z,32.23
2023-01-11T20:36:26.530Z,30.83
2023-01-11T20:38:55.367Z,30.40
2023-01-11T20:41:44.775Z,33.00
2023-01-11T20:44:32.100Z,33.77
2023-01-11T20:47:01.537Z,31.80
2023-01-11T20:49:30.822Z,33.57
2023-01-11T20:51:59.696Z,35.77
2023-01-11T20:54:28.974Z,34.13
2023-01-11T20:57:02.609Z,33.87
2023-01-11T20:59:32.622Z,35.07
2023-01-11T21:02:00.863Z,34.43
2023-01-11T21:04:31.282Z,33.73
2023-01-11T21:06:59.993Z,34.37
2023-01-11T21:09:28.233Z,38.67
2023-01-11T21:11:56.794Z,35.77
2023-01-11T21:14:25.424Z,36.03
2023-01-11T21:16:55.556Z,36.33
2023-01-11T21:19:23.559Z,35.10
2023-01-11T21:21:52.364Z,35.37
2023-01-11T21:24:21.445Z,37.57
2023-01-11T21:26:49.887Z,35.17
2023-01-11T21:29:18.159Z,37.30
2023-01-11T21:31:46.113Z,37.80
2023-01-11T21:34:14.798Z,37.33
2023-01-11T21:36:43.973Z,38.43
2023-01-11T21:39:14.771Z,34.93
2023-01-11T21:41:56.698Z,33.37
2023-01-11T21:44:31.036Z,38.57
2023-01-11T21:47:03.217Z,35.00
2023-01-11T21:49:33.712Z,35.20
2023-01-11T21:52:02.928Z,34.37
2023-01-11T21:54:30.875Z,36.80
2023-01-11T21:56:58.929Z,32.77
2023-01-11T21:59:26.721Z,32.57
2023-01-11T22:01:54.742Z,33.53
2023-01-11T22:04:22.734Z,34.50
2023-01-11T22:06:59.075Z,33.83
2023-01-11T22:09:30.350Z,32.87
2023-01-11T22:11:58.493Z,31.43
2023-01-11T22:14:26.295Z,32.20
2023-01-11T22:16:54.422Z,32.60
2023-01-11T22:19:21.997Z,32.63
2023-01-11T22:21:49.939Z,33.03
2023-01-11T22:24:18.008Z,33.00
2023-01-11T22:26:46.471Z,32.10
2023-01-11T22:29:16.957Z,34.67
2023-01-11T22:31:51.446Z,32.97
2023-01-11T22:34:19.798Z,32.53
2023-01-11T22:36:47.727Z,33.60
2023-01-11T22:39:16.522Z,32.40
2023-01-11T22:41:46.124Z,33.70
2023-01-11T22:44:14.882Z,34.23
2023-01-11T22:46:43.550Z,31.40
2023-01-11T22:49:12.246Z,33.53
2023-01-11T22:51:41.915Z,32.90
2023-01-11T22:54:10.071Z,32.17
2023-01-11T22:56:37.914Z,33.47
2023-01-11T22:59:05.380Z,35.97
2023-01-11T23:01:35.625Z,33.17
2023-01-11T23:04:05.049Z,33.10
2023-01-11T23:06:39.197Z,35.73
2023-01-11T23:09:09.614Z,32.97
2023-01-11T23:11:57.970Z,33.63
2023-01-11T23:14:29.757Z,32.97
2023-01-11T23:17:18.212Z,33.50
2023-01-11T23:19:45.898Z,37.57
2023-01-11T23:22:16.860Z,34.07
2023-01-11T23:24:44.460Z,35.97
2023-01-11T23:27:12.358Z,35.37
2023-01-11T23:29:40.022Z,34.73
2023-01-11T23:32:07.725Z,34.90
2023-01-11T23:34:35.512Z,34.17
2023-01-11T23:37:03.823Z,33.03
2023-01-11T23:39:33.047Z,35.13
2023-01-11T23:42:19.269Z,32.70
2023-01-11T23:44:47.266Z,33.57
2023-01-11T23:47:29.987Z,30.93
2023-01-11T23:50:01.007Z,33.17
2023-01-11T23:52:32.318Z,30.67
2023-01-11T23:55:00.208Z,29.57
2023-01-11T23:57:28.874Z,32.67
2023-01-11T23:59:56.927Z,30.77
